DLH476 EDDM-CYVR
Flight info
| Callsign | DLH476 |
|---|---|
| Flight time | N/A |
| Altitude | 36000 |
| Route | INPUD2N INPUD Y102 UPALA Z109 BIRKA/N0472F300 M852 LARET/N0480F360 M852 SOKWO DCT ATTUS P992 LINVI/N0361F120 P992 ZOL/N0491F360 DCT BARUD/M085F380 DCT 6710N DCT 7020N DCT GISGA DCT 7350N DCT 7360N/M084F400 DCT N7270/N0491F400 DCT 7180N DCT 7087N DCT N6990 DCT 67N00 DCT 65N04 DCT YSM J528 YQU DCT YWL Q800 ELIDI WHSLR8 |
| Aircraft | A359/H-SDE2E3GHIJ3J4J5LM1ORWXY/LB1D1 |
Departure
| Time | N/A |
|---|---|
| Airport | Munich Airport (EDDM) |
Arrival
| Time | 2026-05-04 15:38 |
|---|---|
| Airport | Vancouver International Airport (CYVR) |
| Time | Latitude | Longitude | Altitude | Speed | Heading |
|---|---|---|---|---|---|
| 2026-05-04 14:39 | 54.54793 | -119.74408 | 40201 ft | 515 kts | 222° |
| 2026-05-04 14:40 | 54.45789 | -119.84469 | 40188 ft | 514 kts | 222° |
| 2026-05-04 14:40 | 54.39786 | -119.91144 | 40191 ft | 515 kts | 221° |
| 2026-05-04 14:41 | 54.33770 | -119.97810 | 40185 ft | 515 kts | 221° |
| 2026-05-04 14:42 | 54.21715 | -120.11097 | 40178 ft | 515 kts | 221° |
| 2026-05-04 14:42 | 54.15694 | -120.17708 | 40156 ft | 516 kts | 221° |
| 2026-05-04 14:43 | 54.09650 | -120.24304 | 40129 ft | 515 kts | 221° |
| 2026-05-04 14:43 | 54.03612 | -120.30881 | 40127 ft | 516 kts | 221° |
| 2026-05-04 14:44 | 53.97545 | -120.37465 | 40138 ft | 517 kts | 221° |
| 2026-05-04 14:44 | 53.91476 | -120.44022 | 40121 ft | 517 kts | 221° |
| 2026-05-04 14:45 | 53.85414 | -120.50555 | 40110 ft | 516 kts | 221° |
| 2026-05-04 14:45 | 53.79346 | -120.57070 | 40105 ft | 516 kts | 221° |
| 2026-05-04 14:46 | 53.73279 | -120.63576 | 40082 ft | 516 kts | 220° |
| 2026-05-04 14:46 | 53.67211 | -120.70068 | 40098 ft | 516 kts | 220° |
| 2026-05-04 14:47 | 53.62163 | -120.75412 | 40093 ft | 516 kts | 220° |
| 2026-05-04 14:47 | 53.55087 | -120.82888 | 40093 ft | 517 kts | 220° |
| 2026-05-04 14:48 | 53.48995 | -120.89321 | 40037 ft | 517 kts | 220° |
| 2026-05-04 14:48 | 53.43879 | -120.94687 | 40077 ft | 518 kts | 220° |
| 2026-05-04 14:49 | 53.37803 | -121.01044 | 40088 ft | 519 kts | 220° |
| 2026-05-04 14:49 | 53.31693 | -121.07447 | 40051 ft | 516 kts | 220° |
| 2026-05-04 14:50 | 53.25587 | -121.13796 | 40072 ft | 518 kts | 219° |
| 2026-05-04 14:50 | 53.19476 | -121.20121 | 40063 ft | 517 kts | 219° |
| 2026-05-04 14:51 | 53.13362 | -121.26466 | 40064 ft | 518 kts | 219° |
| 2026-05-04 14:51 | 53.07234 | -121.32795 | 40057 ft | 519 kts | 219° |
| 2026-05-04 14:52 | 53.01090 | -121.39119 | 40045 ft | 519 kts | 219° |
| 2026-05-04 14:52 | 52.94939 | -121.45414 | 40049 ft | 520 kts | 219° |
| 2026-05-04 14:53 | 52.88773 | -121.51686 | 40056 ft | 520 kts | 219° |
| 2026-05-04 14:53 | 52.82617 | -121.57943 | 40047 ft | 519 kts | 219° |
| 2026-05-04 14:54 | 52.76462 | -121.64193 | 40051 ft | 520 kts | 219° |
| 2026-05-04 14:54 | 52.70298 | -121.70428 | 40024 ft | 520 kts | 218° |
| 2026-05-04 14:55 | 52.64128 | -121.76639 | 40047 ft | 519 kts | 218° |
| 2026-05-04 14:55 | 52.57961 | -121.82825 | 40042 ft | 519 kts | 218° |
| 2026-05-04 14:56 | 52.51784 | -121.89003 | 40040 ft | 520 kts | 218° |
| 2026-05-04 14:56 | 52.45645 | -121.95119 | 40004 ft | 520 kts | 218° |
| 2026-05-04 14:57 | 52.39471 | -122.01256 | 40042 ft | 518 kts | 218° |
| 2026-05-04 14:57 | 52.33265 | -122.07399 | 40061 ft | 518 kts | 218° |
| 2026-05-04 14:58 | 52.27092 | -122.13494 | 40057 ft | 519 kts | 218° |
| 2026-05-04 14:58 | 52.20642 | -122.18942 | 40071 ft | 526 kts | 210° |
| 2026-05-04 14:59 | 52.13922 | -122.23669 | 40057 ft | 526 kts | 208° |
| 2026-05-04 15:00 | 52.03844 | -122.30525 | 40049 ft | 526 kts | 208° |
| 2026-05-04 15:00 | 51.97106 | -122.35118 | 40030 ft | 527 kts | 208° |
| 2026-05-04 15:01 | 51.86943 | -122.42051 | 40026 ft | 528 kts | 207° |
| 2026-05-04 15:01 | 51.80176 | -122.46643 | 40035 ft | 528 kts | 207° |
| 2026-05-04 15:02 | 51.73400 | -122.51224 | 40027 ft | 528 kts | 207° |
| 2026-05-04 15:02 | 51.66629 | -122.55793 | 40038 ft | 528 kts | 207° |
| 2026-05-04 15:03 | 51.59843 | -122.60359 | 40027 ft | 529 kts | 207° |
| 2026-05-04 15:03 | 51.53037 | -122.64919 | 40043 ft | 530 kts | 207° |
| 2026-05-04 15:04 | 51.46234 | -122.69461 | 40057 ft | 530 kts | 207° |
| 2026-05-04 15:04 | 51.39430 | -122.73989 | 40056 ft | 530 kts | 207° |
| 2026-05-04 15:05 | 51.32624 | -122.78505 | 40032 ft | 529 kts | 207° |
| 2026-05-04 15:05 | 51.25823 | -122.83008 | 40066 ft | 529 kts | 206° |
| 2026-05-04 15:06 | 51.19024 | -122.87488 | 40066 ft | 529 kts | 206° |
| 2026-05-04 15:07 | 51.08817 | -122.94188 | 40046 ft | 528 kts | 206° |
| 2026-05-04 15:07 | 51.05438 | -122.96399 | 39648 ft | 524 kts | 206° |
| 2026-05-04 15:07 | 51.02113 | -122.98574 | 39073 ft | 524 kts | 206° |
| 2026-05-04 15:07 | 50.98696 | -123.00806 | 38344 ft | 526 kts | 206° |
| 2026-05-04 15:08 | 50.95351 | -123.02987 | 37646 ft | 527 kts | 206° |
| 2026-05-04 15:08 | 50.92061 | -123.05124 | 36985 ft | 526 kts | 206° |
| 2026-05-04 15:08 | 50.89263 | -123.06938 | 36424 ft | 526 kts | 206° |
| 2026-05-04 15:08 | 50.85911 | -123.09074 | 35750 ft | 527 kts | 205° |
| 2026-05-04 15:09 | 50.82499 | -123.11212 | 35123 ft | 526 kts | 205° |
| 2026-05-04 15:09 | 50.79107 | -123.13324 | 34597 ft | 524 kts | 205° |
| 2026-05-04 15:09 | 50.75722 | -123.15434 | 33994 ft | 522 kts | 205° |
| 2026-05-04 15:10 | 50.69018 | -123.19609 | 32867 ft | 514 kts | 205° |
| 2026-05-04 15:10 | 50.65703 | -123.21669 | 32316 ft | 510 kts | 205° |
| 2026-05-04 15:10 | 50.59151 | -123.25740 | 31241 ft | 503 kts | 205° |
| 2026-05-04 15:11 | 50.55902 | -123.27754 | 30696 ft | 500 kts | 204° |
| 2026-05-04 15:11 | 50.52673 | -123.29750 | 30142 ft | 497 kts | 204° |
| 2026-05-04 15:11 | 50.49468 | -123.31728 | 29535 ft | 493 kts | 204° |
| 2026-05-04 15:11 | 50.46293 | -123.33690 | 28980 ft | 488 kts | 204° |
| 2026-05-04 15:12 | 50.43148 | -123.35629 | 28480 ft | 483 kts | 204° |
| 2026-05-04 15:12 | 50.40039 | -123.37544 | 27923 ft | 479 kts | 204° |
| 2026-05-04 15:12 | 50.36949 | -123.39441 | 27398 ft | 474 kts | 204° |
| 2026-05-04 15:12 | 50.33891 | -123.41316 | 26868 ft | 470 kts | 204° |
| 2026-05-04 15:13 | 50.30858 | -123.43174 | 26341 ft | 466 kts | 204° |
| 2026-05-04 15:13 | 50.27846 | -123.45016 | 25821 ft | 462 kts | 204° |
| 2026-05-04 15:13 | 50.24868 | -123.46835 | 25294 ft | 458 kts | 204° |
| 2026-05-04 15:13 | 50.21906 | -123.48642 | 24770 ft | 455 kts | 204° |
| 2026-05-04 15:14 | 50.18965 | -123.50436 | 24254 ft | 452 kts | 204° |
| 2026-05-04 15:14 | 50.16047 | -123.52212 | 23738 ft | 448 kts | 205° |
| 2026-05-04 15:14 | 50.13152 | -123.53981 | 23152 ft | 445 kts | 205° |
| 2026-05-04 15:14 | 50.10280 | -123.55733 | 22625 ft | 440 kts | 204° |
| 2026-05-04 15:15 | 50.07440 | -123.57447 | 22124 ft | 436 kts | 204° |
| 2026-05-04 15:15 | 50.04631 | -123.59141 | 21624 ft | 430 kts | 204° |
| 2026-05-04 15:15 | 50.01863 | -123.60813 | 21148 ft | 425 kts | 204° |
| 2026-05-04 15:16 | 49.96423 | -123.64141 | 20193 ft | 416 kts | 204° |
| 2026-05-04 15:16 | 49.93746 | -123.65786 | 19731 ft | 412 kts | 204° |
| 2026-05-04 15:16 | 49.88464 | -123.69016 | 18791 ft | 403 kts | 203° |
| 2026-05-04 15:17 | 49.85871 | -123.70603 | 18340 ft | 399 kts | 203° |
| 2026-05-04 15:17 | 49.80569 | -123.72682 | 17409 ft | 393 kts | 176° |
| 2026-05-04 15:17 | 49.77886 | -123.71989 | 16935 ft | 390 kts | 166° |
| 2026-05-04 15:18 | 49.75267 | -123.71002 | 16502 ft | 385 kts | 166° |
| 2026-05-04 15:18 | 49.72681 | -123.70032 | 16062 ft | 382 kts | 166° |
| 2026-05-04 15:18 | 49.70105 | -123.69082 | 15627 ft | 379 kts | 167° |
| 2026-05-04 15:19 | 49.65064 | -123.67270 | 14867 ft | 370 kts | 167° |
| 2026-05-04 15:19 | 49.62561 | -123.66372 | 14462 ft | 368 kts | 167° |
| 2026-05-04 15:19 | 49.57719 | -123.64642 | 14134 ft | 344 kts | 167° |
| 2026-05-04 15:20 | 49.55431 | -123.63829 | 13974 ft | 331 kts | 167° |
| 2026-05-04 15:20 | 49.53203 | -123.63037 | 13636 ft | 328 kts | 167° |
| 2026-05-04 15:20 | 49.50991 | -123.62251 | 13282 ft | 324 kts | 167° |
| 2026-05-04 15:20 | 49.48809 | -123.61472 | 12966 ft | 320 kts | 167° |
| 2026-05-04 15:21 | 49.46653 | -123.60706 | 12659 ft | 316 kts | 167° |
| 2026-05-04 15:21 | 49.44527 | -123.59951 | 12351 ft | 312 kts | 167° |
| 2026-05-04 15:21 | 49.40342 | -123.58469 | 11739 ft | 305 kts | 167° |
| 2026-05-04 15:22 | 49.38284 | -123.57735 | 11435 ft | 302 kts | 167° |
| 2026-05-04 15:22 | 49.36348 | -123.56576 | 11130 ft | 299 kts | 147° |
| 2026-05-04 15:22 | 49.34194 | -123.51297 | 10645 ft | 302 kts | 99° |
| 2026-05-04 15:23 | 49.33867 | -123.48120 | 10325 ft | 301 kts | 97° |
| 2026-05-04 15:23 | 49.33568 | -123.44946 | 10049 ft | 300 kts | 98° |
| 2026-05-04 15:23 | 49.33259 | -123.41813 | 9866 ft | 292 kts | 98° |
| 2026-05-04 15:23 | 49.32952 | -123.38782 | 9617 ft | 285 kts | 98° |
| 2026-05-04 15:24 | 49.32343 | -123.32917 | 9098 ft | 275 kts | 98° |
| 2026-05-04 15:24 | 49.31741 | -123.27187 | 8565 ft | 267 kts | 98° |
| 2026-05-04 15:25 | 49.31451 | -123.24452 | 8349 ft | 260 kts | 99° |
| 2026-05-04 15:25 | 49.31162 | -123.21731 | 8102 ft | 257 kts | 99° |
| 2026-05-04 15:25 | 49.30876 | -123.19030 | 7792 ft | 256 kts | 99° |
| 2026-05-04 15:26 | 49.30301 | -123.13660 | 7292 ft | 254 kts | 99° |
| 2026-05-04 15:26 | 49.30016 | -123.11005 | 7042 ft | 252 kts | 99° |
| 2026-05-04 15:26 | 49.29450 | -123.05751 | 6607 ft | 246 kts | 99° |
| 2026-05-04 15:27 | 49.29177 | -123.03206 | 6394 ft | 239 kts | 99° |
| 2026-05-04 15:27 | 49.28580 | -122.98292 | 5971 ft | 232 kts | 104° |
| 2026-05-04 15:28 | 49.28137 | -122.95735 | 5817 ft | 231 kts | 105° |
| 2026-05-04 15:28 | 49.27716 | -122.93374 | 5668 ft | 230 kts | 105° |
| 2026-05-04 15:28 | 49.26879 | -122.88660 | 5430 ft | 229 kts | 105° |
| 2026-05-04 15:29 | 49.26464 | -122.86320 | 5309 ft | 227 kts | 105° |
| 2026-05-04 15:30 | 49.24850 | -122.77018 | 4814 ft | 224 kts | 99° |
| 2026-05-04 15:30 | 49.21873 | -122.71616 | 4777 ft | 242 kts | 173° |
| 2026-05-04 15:31 | 49.19413 | -122.72839 | 4574 ft | 231 kts | 212° |
| 2026-05-04 15:31 | 49.18052 | -122.74220 | 4348 ft | 230 kts | 212° |
| 2026-05-04 15:32 | 49.14664 | -122.79288 | 3990 ft | 236 kts | 253° |
| 2026-05-04 15:32 | 49.14766 | -122.84067 | 3702 ft | 218 kts | 283° |
| 2026-05-04 15:33 | 49.15331 | -122.88405 | 3466 ft | 198 kts | 280° |
| 2026-05-04 15:34 | 49.15991 | -122.94264 | 2848 ft | 182 kts | 280° |
| 2026-05-04 15:34 | 49.16204 | -122.96126 | 2614 ft | 173 kts | 280° |
| 2026-05-04 15:34 | 49.16595 | -122.99557 | 2165 ft | 155 kts | 280° |
| 2026-05-04 15:35 | 49.16944 | -123.02632 | 1744 ft | 141 kts | 281° |
| 2026-05-04 15:35 | 49.17047 | -123.03609 | 1649 ft | 141 kts | 280° |
| 2026-05-04 15:35 | 49.17197 | -123.05097 | 1459 ft | 142 kts | 280° |
| 2026-05-04 15:36 | 49.17544 | -123.08040 | 1157 ft | 140 kts | 282° |
| 2026-05-04 15:36 | 49.17724 | -123.09493 | 986 ft | 139 kts | 279° |
| 2026-05-04 15:36 | 49.17937 | -123.11413 | 693 ft | 137 kts | 279° |
| 2026-05-04 15:37 | 49.18044 | -123.12384 | 574 ft | 137 kts | 279° |
| 2026-05-04 15:37 | 49.18210 | -123.13807 | 365 ft | 136 kts | 279° |
| 2026-05-04 15:37 | 49.18369 | -123.15227 | 168 ft | 135 kts | 279° |
| 2026-05-04 15:37 | 49.18535 | -123.16642 | 33 ft | 134 kts | 279° |
| 2026-05-04 15:38 | 49.18675 | -123.17873 | 31 ft | 110 kts | 280° |
| 2026-05-04 15:38 | 49.18780 | -123.18789 | 28 ft | 64 kts | 279° |
| 2026-05-04 15:38 | 49.18833 | -123.19246 | 29 ft | 34 kts | 279° |
| 2026-05-04 15:38 | 49.18901 | -123.19569 | 29 ft | 29 kts | 306° |
| 2026-05-04 15:39 | 49.19003 | -123.19756 | 29 ft | 17 kts | 311° |
| 2026-05-04 15:39 | 49.19097 | -123.19836 | 29 ft | 17 kts | 348° |
| 2026-05-04 15:39 | 49.19256 | -123.19724 | 29 ft | 10 kts | 49° |
| 2026-05-04 15:40 | 49.19284 | -123.19614 | 29 ft | 13 kts | 76° |
| 2026-05-04 15:40 | 49.19302 | -123.19466 | 29 ft | 16 kts | 79° |
| 2026-05-04 15:40 | 49.19329 | -123.19285 | 28 ft | 18 kts | 64° |
| 2026-05-04 15:40 | 49.19440 | -123.19210 | 29 ft | 19 kts | 11° |
| 2026-05-04 15:41 | 49.19572 | -123.19171 | 29 ft | 17 kts | 11° |
| 2026-05-04 15:41 | 49.19689 | -123.19141 | 29 ft | 11 kts | 9° |
| 2026-05-04 15:41 | 49.19701 | -123.19138 | 29 ft | 0 kts | 9° |
| 2026-05-04 15:43 | 49.19735 | -123.19129 | 29 ft | 12 kts | 9° |
| 2026-05-04 15:43 | 49.19831 | -123.19105 | 29 ft | 15 kts | 9° |
| 2026-05-04 15:43 | 49.19946 | -123.19076 | 29 ft | 18 kts | 10° |
| 2026-05-04 15:43 | 49.20078 | -123.19042 | 29 ft | 19 kts | 10° |
| 2026-05-04 15:44 | 49.20168 | -123.18955 | 29 ft | 16 kts | 86° |
| 2026-05-04 15:44 | 49.20153 | -123.18775 | 29 ft | 18 kts | 99° |
| 2026-05-04 15:44 | 49.20133 | -123.18603 | 29 ft | 6 kts | 100° |
| 2026-05-04 15:44 | 49.20114 | -123.18536 | 29 ft | 8 kts | 133° |
| 2026-05-04 15:45 | 49.20061 | -123.18500 | 29 ft | 9 kts | 149° |
| 2026-05-04 15:45 | 49.20040 | -123.18428 | 29 ft | 8 kts | 103° |
| 2026-05-04 15:45 | 49.20006 | -123.18395 | 29 ft | 6 kts | 174° |
| 2026-05-04 15:45 | 49.19976 | -123.18397 | 29 ft | 5 kts | 187° |
| 2026-05-04 15:46 | 49.19969 | -123.18399 | 29 ft | 0 kts | 188° |